sensor_id;sensor_type;location;lat;lon;timestamp;temperature;humidity
18191;DHT22;47004;51.366;12.348;2022-09-29T00:00:16;7.00;99.90
18191;DHT22;47004;51.366;12.348;2022-09-29T00:02:18;7.00;99.90
18191;DHT22;47004;51.366;12.348;2022-09-29T00:04:20;7.00;99.90
18191;DHT22;47004;51.366;12.348;2022-09-29T00:06:22;7.10;99.90
18191;DHT22;47004;51.366;12.348;2022-09-29T00:08:27;7.00;99.90
18191;DHT22;47004;51.366;12.348;2022-09-29T00:10:29;7.00;99.90
18191;DHT22;47004;51.366;12.348;2022-09-29T00:12:31;7.00;99.90
18191;DHT22;47004;51.366;12.348;2022-09-29T00:14:33;7.00;99.90
18191;DHT22;47004;51.366;12.348;2022-09-29T00:16:36;7.00;99.90
18191;DHT22;47004;51.366;12.348;2022-09-29T00:18:38;7.00;99.90
18191;DHT22;47004;51.366;12.348;2022-09-29T00:20:40;6.90;99.90
18191;DHT22;47004;51.366;12.348;2022-09-29T00:22:42;6.90;99.90
18191;DHT22;47004;51.366;12.348;2022-09-29T00:24:46;6.90;99.90
18191;DHT22;47004;51.366;12.348;2022-09-29T00:26:48;6.90;99.90
18191;DHT22;47004;51.366;12.348;2022-09-29T00:28:51;6.90;99.90
18191;DHT22;47004;51.366;12.348;2022-09-29T00:30:57;6.90;99.90
18191;DHT22;47004;51.366;12.348;2022-09-29T00:33:01;6.80;99.90
18191;DHT22;47004;51.366;12.348;2022-09-29T00:35:03;6.80;99.90
18191;DHT22;47004;51.366;12.348;2022-09-29T00:37:07;6.80;99.90
18191;DHT22;47004;51.366;12.348;2022-09-29T00:39:10;6.80;99.90
18191;DHT22;47004;51.366;12.348;2022-09-29T00:41:14;6.80;99.90
18191;DHT22;47004;51.366;12.348;2022-09-29T00:43:20;6.80;99.90
18191;DHT22;47004;51.366;12.348;2022-09-29T00:45:23;6.70;99.90
18191;DHT22;47004;51.366;12.348;2022-09-29T00:47:26;6.70;99.90
18191;DHT22;47004;51.366;12.348;2022-09-29T00:49:35;6.70;99.90
18191;DHT22;47004;51.366;12.348;2022-09-29T00:51:41;6.70;99.90
18191;DHT22;47004;51.366;12.348;2022-09-29T00:53:45;6.70;99.90
18191;DHT22;47004;51.366;12.348;2022-09-29T00:55:51;6.70;99.90
18191;DHT22;47004;51.366;12.348;2022-09-29T00:57:56;6.70;99.90
18191;DHT22;47004;51.366;12.348;2022-09-29T01:00:03;6.70;99.90
18191;DHT22;47004;51.366;12.348;2022-09-29T01:02:07;6.60;99.90
18191;DHT22;47004;51.366;12.348;2022-09-29T01:04:11;6.60;99.90
18191;DHT22;47004;51.366;12.348;2022-09-29T01:06:19;6.60;99.90
18191;DHT22;47004;51.366;12.348;2022-09-29T01:08:27;6.50;99.90
18191;DHT22;47004;51.366;12.348;2022-09-29T01:10:31;6.60;99.90
18191;DHT22;47004;51.366;12.348;2022-09-29T01:12:35;6.60;99.90
18191;DHT22;47004;51.366;12.348;2022-09-29T01:14:37;6.50;99.90
18191;DHT22;47004;51.366;12.348;2022-09-29T01:16:39;6.50;99.90
18191;DHT22;47004;51.366;12.348;2022-09-29T01:18:42;6.50;99.90
18191;DHT22;47004;51.366;12.348;2022-09-29T01:20:56;6.50;99.90
18191;DHT22;47004;51.366;12.348;2022-09-29T01:28:43;6.60;99.90
18191;DHT22;47004;51.366;12.348;2022-09-29T01:31:05;6.60;99.90
18191;DHT22;47004;51.366;12.348;2022-09-29T01:33:23;6.60;99.90
18191;DHT22;47004;51.366;12.348;2022-09-29T01:35:37;6.50;99.90
18191;DHT22;47004;51.366;12.348;2022-09-29T01:37:52;6.60;99.90
18191;DHT22;47004;51.366;12.348;2022-09-29T01:40:02;6.60;99.90
18191;DHT22;47004;51.366;12.348;2022-09-29T01:42:10;6.50;99.90
18191;DHT22;47004;51.366;12.348;2022-09-29T01:44:19;6.60;99.90
18191;DHT22;47004;51.366;12.348;2022-09-29T01:46:27;6.60;99.90
18191;DHT22;47004;51.366;12.348;2022-09-29T01:48:33;6.60;99.90
18191;DHT22;47004;51.366;12.348;2022-09-29T01:50:39;6.50;99.90
18191;DHT22;47004;51.366;12.348;2022-09-29T01:52:45;6.50;99.90
18191;DHT22;47004;51.366;12.348;2022-09-29T01:54:52;6.50;99.90
18191;DHT22;47004;51.366;12.348;2022-09-29T01:57:00;6.50;99.90
18191;DHT22;47004;51.366;12.348;2022-09-29T01:59:05;6.50;99.90
18191;DHT22;47004;51.366;12.348;2022-09-29T02:01:15;6.50;99.90
18191;DHT22;47004;51.366;12.348;2022-09-29T02:03:21;6.50;99.90
18191;DHT22;47004;51.366;12.348;2022-09-29T02:05:30;6.50;99.90
18191;DHT22;47004;51.366;12.348;2022-09-29T02:07:36;7.00;99.90
18191;DHT22;47004;51.366;12.348;2022-09-29T02:09:41;6.50;99.90
18191;DHT22;47004;51.366;12.348;2022-09-29T02:11:45;6.50;99.90
18191;DHT22;47004;51.366;12.348;2022-09-29T02:13:50;6.50;99.90
18191;DHT22;47004;51.366;12.348;2022-09-29T02:15:54;6.40;99.90
18191;DHT22;47004;51.366;12.348;2022-09-29T02:18:01;6.40;99.90
18191;DHT22;47004;51.366;12.348;2022-09-29T02:20:09;6.40;99.90
18191;DHT22;47004;51.366;12.348;2022-09-29T02:22:12;6.40;99.90
18191;DHT22;47004;51.366;12.348;2022-09-29T02:24:14;6.40;99.90
18191;DHT22;47004;51.366;12.348;2022-09-29T02:26:17;6.40;99.90
18191;DHT22;47004;51.366;12.348;2022-09-29T02:28:20;6.40;99.90
18191;DHT22;47004;51.366;12.348;2022-09-29T02:30:22;6.30;99.90
18191;DHT22;47004;51.366;12.348;2022-09-29T02:32:27;6.30;99.90
18191;DHT22;47004;51.366;12.348;2022-09-29T02:34:31;6.30;99.90
18191;DHT22;47004;51.366;12.348;2022-09-29T02:36:41;6.30;99.90
18191;DHT22;47004;51.366;12.348;2022-09-29T02:38:52;6.30;99.90
18191;DHT22;47004;51.366;12.348;2022-09-29T02:41:00;6.30;99.90
18191;DHT22;47004;51.366;12.348;2022-09-29T02:43:14;6.30;99.90
18191;DHT22;47004;51.366;12.348;2022-09-29T02:45:29;6.30;99.90
18191;DHT22;47004;51.366;12.348;2022-09-29T02:47:48;6.20;99.90
18191;DHT22;47004;51.366;12.348;2022-09-29T02:50:05;6.20;99.90
18191;DHT22;47004;51.366;12.348;2022-09-29T02:52:19;6.20;99.90
18191;DHT22;47004;51.366;12.348;2022-09-29T02:54:46;6.20;99.90
18191;DHT22;47004;51.366;12.348;2022-09-29T02:56:57;6.20;99.90
18191;DHT22;47004;51.366;12.348;2022-09-29T02:59:06;6.20;99.90
18191;DHT22;47004;51.366;12.348;2022-09-29T03:01:08;6.20;99.90
18191;DHT22;47004;51.366;12.348;2022-09-29T03:03:10;6.20;99.90
18191;DHT22;47004;51.366;12.348;2022-09-29T03:05:14;6.30;99.90
18191;DHT22;47004;51.366;12.348;2022-09-29T03:07:18;6.10;99.90
18191;DHT22;47004;51.366;12.348;2022-09-29T03:09:20;6.10;99.90
18191;DHT22;47004;51.366;12.348;2022-09-29T03:11:22;6.10;99.90
18191;DHT22;47004;51.366;12.348;2022-09-29T03:13:24;6.10;99.90
18191;DHT22;47004;51.366;12.348;2022-09-29T03:15:26;6.10;99.90
18191;DHT22;47004;51.366;12.348;2022-09-29T03:17:28;6.00;99.90
18191;DHT22;47004;51.366;12.348;2022-09-29T03:19:30;6.00;99.90
18191;DHT22;47004;51.366;12.348;2022-09-29T03:21:32;6.10;99.90
18191;DHT22;47004;51.366;12.348;2022-09-29T03:23:36;6.00;99.90
18191;DHT22;47004;51.366;12.348;2022-09-29T03:25:38;6.00;99.90
18191;DHT22;47004;51.366;12.348;2022-09-29T03:27:40;6.00;99.90
18191;DHT22;47004;51.366;12.348;2022-09-29T03:29:42;6.00;99.90
18191;DHT22;47004;51.366;12.348;2022-09-29T03:31:44;6.00;99.90
18191;DHT22;47004;51.366;12.348;2022-09-29T03:33:46;6.00;99.90
18191;DHT22;47004;51.366;12.348;2022-09-29T03:35:48;6.00;99.90
18191;DHT22;47004;51.366;12.348;2022-09-29T03:37:50;6.00;99.90
18191;DHT22;47004;51.366;12.348;2022-09-29T03:39:54;6.00;99.90
18191;DHT22;47004;51.366;12.348;2022-09-29T03:41:56;6.00;99.90
18191;DHT22;47004;51.366;12.348;2022-09-29T03:43:58;6.00;99.90
18191;DHT22;47004;51.366;12.348;2022-09-29T03:46:00;6.00;99.90
18191;DHT22;47004;51.366;12.348;2022-09-29T03:48:02;6.00;99.90
18191;DHT22;47004;51.366;12.348;2022-09-29T03:50:04;6.00;99.90
18191;DHT22;47004;51.366;12.348;2022-09-29T03:52:06;6.00;99.90
18191;DHT22;47004;51.366;12.348;2022-09-29T03:54:08;6.00;99.90
18191;DHT22;47004;51.366;12.348;2022-09-29T03:56:11;6.00;99.90
18191;DHT22;47004;51.366;12.348;2022-09-29T03:58:14;5.90;99.90
18191;DHT22;47004;51.366;12.348;2022-09-29T04:00:16;5.90;99.90
18191;DHT22;47004;51.366;12.348;2022-09-29T04:02:18;5.90;99.90
18191;DHT22;47004;51.366;12.348;2022-09-29T04:04:20;5.90;99.90
18191;DHT22;47004;51.366;12.348;2022-09-29T04:06:22;5.90;99.90
18191;DHT22;47004;51.366;12.348;2022-09-29T04:08:24;5.90;99.90
18191;DHT22;47004;51.366;12.348;2022-09-29T04:10:26;5.90;99.90
18191;DHT22;47004;51.366;12.348;2022-09-29T04:12:29;5.90;99.90
18191;DHT22;47004;51.366;12.348;2022-09-29T04:14:31;5.90;99.90
18191;DHT22;47004;51.366;12.348;2022-09-29T04:16:33;5.90;99.90
18191;DHT22;47004;51.366;12.348;2022-09-29T04:18:35;5.90;99.90
18191;DHT22;47004;51.366;12.348;2022-09-29T04:20:37;5.80;99.90
18191;DHT22;47004;51.366;12.348;2022-09-29T04:22:39;5.80;99.90
18191;DHT22;47004;51.366;12.348;2022-09-29T04:24:41;5.80;99.90
18191;DHT22;47004;51.366;12.348;2022-09-29T04:26:43;5.80;99.90
18191;DHT22;47004;51.366;12.348;2022-09-29T04:28:46;5.80;99.90
18191;DHT22;47004;51.366;12.348;2022-09-29T04:30:48;5.80;99.90
18191;DHT22;47004;51.366;12.348;2022-09-29T04:32:50;5.80;99.90
18191;DHT22;47004;51.366;12.348;2022-09-29T04:34:52;5.80;99.90
18191;DHT22;47004;51.366;12.348;2022-09-29T04:36:54;5.80;99.90
18191;DHT22;47004;51.366;12.348;2022-09-29T04:38:56;5.70;99.90
18191;DHT22;47004;51.366;12.348;2022-09-29T04:40:58;5.70;99.90
18191;DHT22;47004;51.366;12.348;2022-09-29T04:43:00;5.70;99.90
18191;DHT22;47004;51.366;12.348;2022-09-29T04:45:04;5.70;99.90
18191;DHT22;47004;51.366;12.348;2022-09-29T04:47:06;5.70;99.90
18191;DHT22;47004;51.366;12.348;2022-09-29T04:49:10;5.70;99.90
18191;DHT22;47004;51.366;12.348;2022-09-29T04:51:14;5.70;99.90
18191;DHT22;47004;51.366;12.348;2022-09-29T04:53:16;5.70;99.90
18191;DHT22;47004;51.366;12.348;2022-09-29T04:55:18;5.70;99.90
18191;DHT22;47004;51.366;12.348;2022-09-29T04:57:20;5.70;99.90
18191;DHT22;47004;51.366;12.348;2022-09-29T04:59:22;5.70;99.90
18191;DHT22;47004;51.366;12.348;2022-09-29T05:01:25;5.60;99.90
18191;DHT22;47004;51.366;12.348;2022-09-29T05:03:27;5.60;99.90
18191;DHT22;47004;51.366;12.348;2022-09-29T05:05:29;5.60;99.90
18191;DHT22;47004;51.366;12.348;2022-09-29T05:07:33;5.60;99.90
18191;DHT22;47004;51.366;12.348;2022-09-29T05:09:35;5.60;99.90
18191;DHT22;47004;51.366;12.348;2022-09-29T05:11:37;5.60;99.90
18191;DHT22;47004;51.366;12.348;2022-09-29T05:13:39;5.50;99.90
18191;DHT22;47004;51.366;12.348;2022-09-29T05:15:41;5.50;99.90
18191;DHT22;47004;51.366;12.348;2022-09-29T05:17:44;5.50;99.90
18191;DHT22;47004;51.366;12.348;2022-09-29T05:19:46;5.50;99.90
18191;DHT22;47004;51.366;12.348;2022-09-29T05:21:49;5.50;99.90
18191;DHT22;47004;51.366;12.348;2022-09-29T05:23:51;5.40;99.90
18191;DHT22;47004;51.366;12.348;2022-09-29T05:25:52;5.40;99.90
18191;DHT22;47004;51.366;12.348;2022-09-29T05:27:54;5.40;99.90
18191;DHT22;47004;51.366;12.348;2022-09-29T05:29:57;5.40;99.90
18191;DHT22;47004;51.366;12.348;2022-09-29T05:31:59;5.50;99.90
18191;DHT22;47004;51.366;12.348;2022-09-29T05:34:03;5.50;99.90
18191;DHT22;47004;51.366;12.348;2022-09-29T05:36:06;5.50;99.90
18191;DHT22;47004;51.366;12.348;2022-09-29T05:38:08;5.40;99.90
18191;DHT22;47004;51.366;12.348;2022-09-29T05:40:10;5.50;99.90
18191;DHT22;47004;51.366;12.348;2022-09-29T05:42:12;5.40;99.90
18191;DHT22;47004;51.366;12.348;2022-09-29T05:44:14;5.40;99.90
18191;DHT22;47004;51.366;12.348;2022-09-29T05:46:16;5.40;99.90
18191;DHT22;47004;51.366;12.348;2022-09-29T05:48:18;5.40;99.90
18191;DHT22;47004;51.366;12.348;2022-09-29T05:50:22;5.40;99.90
18191;DHT22;47004;51.366;12.348;2022-09-29T05:52:24;5.50;99.90
18191;DHT22;47004;51.366;12.348;2022-09-29T05:54:26;5.50;99.90
18191;DHT22;47004;51.366;12.348;2022-09-29T05:56:28;5.50;99.90
18191;DHT22;47004;51.366;12.348;2022-09-29T05:58:29;5.50;99.90
18191;DHT22;47004;51.366;12.348;2022-09-29T06:00:31;5.50;99.90
18191;DHT22;47004;51.366;12.348;2022-09-29T06:02:34;5.50;99.90
18191;DHT22;47004;51.366;12.348;2022-09-29T06:04:36;5.40;99.90
18191;DHT22;47004;51.366;12.348;2022-09-29T06:06:39;5.40;99.90
18191;DHT22;47004;51.366;12.348;2022-09-29T06:08:42;5.50;99.90
18191;DHT22;47004;51.366;12.348;2022-09-29T06:10:44;5.40;99.90
18191;DHT22;47004;51.366;12.348;2022-09-29T06:12:46;5.40;99.90
18191;DHT22;47004;51.366;12.348;2022-09-29T06:14:48;5.40;99.90
18191;DHT22;47004;51.366;12.348;2022-09-29T06:16:50;5.40;99.90
18191;DHT22;47004;51.366;12.348;2022-09-29T06:18:53;5.50;99.90
18191;DHT22;47004;51.366;12.348;2022-09-29T06:21:00;5.40;99.90
18191;DHT22;47004;51.366;12.348;2022-09-29T06:23:03;5.50;99.90
18191;DHT22;47004;51.366;12.348;2022-09-29T06:25:06;5.50;99.90
18191;DHT22;47004;51.366;12.348;2022-09-29T06:27:08;5.50;99.90
18191;DHT22;47004;51.366;12.348;2022-09-29T06:29:11;5.50;99.90
18191;DHT22;47004;51.366;12.348;2022-09-29T06:31:14;5.50;99.90
18191;DHT22;47004;51.366;12.348;2022-09-29T06:33:16;5.60;99.90
18191;DHT22;47004;51.366;12.348;2022-09-29T06:35:20;5.60;99.90
18191;DHT22;47004;51.366;12.348;2022-09-29T06:37:42;5.60;99.90
18191;DHT22;47004;51.366;12.348;2022-09-29T06:39:47;5.60;99.90
18191;DHT22;47004;51.366;12.348;2022-09-29T06:41:49;5.60;99.90
18191;DHT22;47004;51.366;12.348;2022-09-29T06:43:54;5.70;99.90
18191;DHT22;47004;51.366;12.348;2022-09-29T06:45:56;5.70;99.90
18191;DHT22;47004;51.366;12.348;2022-09-29T06:47:58;5.70;99.90
18191;DHT22;47004;51.366;12.348;2022-09-29T06:50:03;5.70;99.90
18191;DHT22;47004;51.366;12.348;2022-09-29T06:52:06;5.70;99.90
18191;DHT22;47004;51.366;12.348;2022-09-29T06:54:09;5.80;99.90
18191;DHT22;47004;51.366;12.348;2022-09-29T06:56:12;5.80;99.90
18191;DHT22;47004;51.366;12.348;2022-09-29T06:58:14;5.80;99.90
18191;DHT22;47004;51.366;12.348;2022-09-29T07:00:16;5.80;99.90
18191;DHT22;47004;51.366;12.348;2022-09-29T07:02:18;5.90;99.90
18191;DHT22;47004;51.366;12.348;2022-09-29T07:04:21;5.90;99.90
18191;DHT22;47004;51.366;12.348;2022-09-29T07:06:23;5.90;99.90
18191;DHT22;47004;51.366;12.348;2022-09-29T07:08:25;6.00;99.90
18191;DHT22;47004;51.366;12.348;2022-09-29T07:10:28;6.00;99.90
18191;DHT22;47004;51.366;12.348;2022-09-29T07:12:31;6.00;99.90
18191;DHT22;47004;51.366;12.348;2022-09-29T07:14:33;6.10;99.90
18191;DHT22;47004;51.366;12.348;2022-09-29T07:16:38;6.10;99.90
18191;DHT22;47004;51.366;12.348;2022-09-29T07:18:41;6.10;99.90
18191;DHT22;47004;51.366;12.348;2022-09-29T07:20:44;6.20;99.90
18191;DHT22;47004;51.366;12.348;2022-09-29T07:22:46;6.20;99.90
18191;DHT22;47004;51.366;12.348;2022-09-29T07:24:48;6.30;99.90
18191;DHT22;47004;51.366;12.348;2022-09-29T07:26:50;6.30;99.90
18191;DHT22;47004;51.366;12.348;2022-09-29T07:28:54;6.30;99.90
18191;DHT22;47004;51.366;12.348;2022-09-29T07:30:59;6.40;99.90
18191;DHT22;47004;51.366;12.348;2022-09-29T07:33:03;6.40;99.90
18191;DHT22;47004;51.366;12.348;2022-09-29T07:35:05;6.40;99.90
18191;DHT22;47004;51.366;12.348;2022-09-29T07:37:08;6.50;99.90
18191;DHT22;47004;51.366;12.348;2022-09-29T07:39:10;6.50;99.90
18191;DHT22;47004;51.366;12.348;2022-09-29T07:41:12;6.60;99.90
18191;DHT22;47004;51.366;12.348;2022-09-29T07:43:14;6.60;99.90
18191;DHT22;47004;51.366;12.348;2022-09-29T07:45:18;6.60;99.90
18191;DHT22;47004;51.366;12.348;2022-09-29T07:47:19;6.70;99.90
18191;DHT22;47004;51.366;12.348;2022-09-29T07:49:21;6.70;99.90
18191;DHT22;47004;51.366;12.348;2022-09-29T07:51:23;6.80;99.90
18191;DHT22;47004;51.366;12.348;2022-09-29T07:53:25;6.80;99.90
18191;DHT22;47004;51.366;12.348;2022-09-29T07:55:27;6.90;99.90
18191;DHT22;47004;51.366;12.348;2022-09-29T07:57:29;6.90;99.90
18191;DHT22;47004;51.366;12.348;2022-09-29T07:59:31;7.00;99.90
18191;DHT22;47004;51.366;12.348;2022-09-29T08:01:34;7.00;99.90
18191;DHT22;47004;51.366;12.348;2022-09-29T08:03:37;7.10;99.90
18191;DHT22;47004;51.366;12.348;2022-09-29T08:05:40;7.10;99.90
18191;DHT22;47004;51.366;12.348;2022-09-29T08:07:42;7.20;99.90
18191;DHT22;47004;51.366;12.348;2022-09-29T08:09:44;7.20;99.90
18191;DHT22;47004;51.366;12.348;2022-09-29T08:11:46;7.30;99.90
18191;DHT22;47004;51.366;12.348;2022-09-29T08:13:50;7.30;99.90
18191;DHT22;47004;51.366;12.348;2022-09-29T08:15:56;7.50;99.90
18191;DHT22;47004;51.366;12.348;2022-09-29T08:18:00;7.50;99.90
18191;DHT22;47004;51.366;12.348;2022-09-29T08:20:03;7.60;99.90
18191;DHT22;47004;51.366;12.348;2022-09-29T08:22:05;7.60;99.90
18191;DHT22;47004;51.366;12.348;2022-09-29T08:24:08;7.70;99.90
18191;DHT22;47004;51.366;12.348;2022-09-29T08:26:12;7.80;99.90
18191;DHT22;47004;51.366;12.348;2022-09-29T08:28:14;7.80;99.90
18191;DHT22;47004;51.366;12.348;2022-09-29T08:30:16;7.90;99.90
18191;DHT22;47004;51.366;12.348;2022-09-29T08:32:21;8.00;99.90
18191;DHT22;47004;51.366;12.348;2022-09-29T08:34:26;8.00;99.90
18191;DHT22;47004;51.366;12.348;2022-09-29T08:36:28;8.00;99.90
18191;DHT22;47004;51.366;12.348;2022-09-29T08:38:31;8.10;99.90
18191;DHT22;47004;51.366;12.348;2022-09-29T08:40:35;8.20;99.90
18191;DHT22;47004;51.366;12.348;2022-09-29T08:42:45;8.20;99.90
18191;DHT22;47004;51.366;12.348;2022-09-29T08:44:52;8.30;99.90
18191;DHT22;47004;51.366;12.348;2022-09-29T08:47:02;8.30;99.90
18191;DHT22;47004;51.366;12.348;2022-09-29T08:49:09;8.40;99.90
18191;DHT22;47004;51.366;12.348;2022-09-29T08:51:22;8.40;99.90
18191;DHT22;47004;51.366;12.348;2022-09-29T08:53:27;8.50;99.90
18191;DHT22;47004;51.366;12.348;2022-09-29T08:55:38;8.60;99.90
18191;DHT22;47004;51.366;12.348;2022-09-29T08:57:42;8.60;99.90
18191;DHT22;47004;51.366;12.348;2022-09-29T08:59:51;8.70;99.90
18191;DHT22;47004;51.366;12.348;2022-09-29T09:02:12;8.80;99.90
18191;DHT22;47004;51.366;12.348;2022-09-29T09:04:45;8.90;99.90
18191;DHT22;47004;51.366;12.348;2022-09-29T09:07:03;8.90;99.90
18191;DHT22;47004;51.366;12.348;2022-09-29T09:09:25;9.00;99.90
18191;DHT22;47004;51.366;12.348;2022-09-29T09:11:42;9.10;99.90
18191;DHT22;47004;51.366;12.348;2022-09-29T09:13:55;9.10;99.90
18191;DHT22;47004;51.366;12.348;2022-09-29T09:16:14;9.20;99.90
18191;DHT22;47004;51.366;12.348;2022-09-29T09:18:43;9.30;99.90
18191;DHT22;47004;51.366;12.348;2022-09-29T09:20:54;9.30;99.90
18191;DHT22;47004;51.366;12.348;2022-09-29T09:22:59;9.40;99.90
18191;DHT22;47004;51.366;12.348;2022-09-29T09:25:06;9.50;99.90
18191;DHT22;47004;51.366;12.348;2022-09-29T09:27:19;9.50;99.90
18191;DHT22;47004;51.366;12.348;2022-09-29T09:29:28;9.60;99.90
18191;DHT22;47004;51.366;12.348;2022-09-29T09:31:35;9.70;99.90
18191;DHT22;47004;51.366;12.348;2022-09-29T09:33:43;9.70;99.90
18191;DHT22;47004;51.366;12.348;2022-09-29T09:35:50;9.80;99.90
18191;DHT22;47004;51.366;12.348;2022-09-29T09:37:54;9.90;99.90
18191;DHT22;47004;51.366;12.348;2022-09-29T09:40:03;9.90;99.90
18191;DHT22;47004;51.366;12.348;2022-09-29T09:42:13;10.00;99.90
18191;DHT22;47004;51.366;12.348;2022-09-29T09:44:21;10.00;99.90
18191;DHT22;47004;51.366;12.348;2022-09-29T09:46:28;10.10;99.90
18191;DHT22;47004;51.366;12.348;2022-09-29T09:48:40;10.10;99.90
18191;DHT22;47004;51.366;12.348;2022-09-29T09:50:44;10.30;99.90
18191;DHT22;47004;51.366;12.348;2022-09-29T09:52:50;10.40;99.90
18191;DHT22;47004;51.366;12.348;2022-09-29T09:54:55;10.50;99.90
18191;DHT22;47004;51.366;12.348;2022-09-29T09:57:28;10.60;99.90
18191;DHT22;47004;51.366;12.348;2022-09-29T09:59:42;10.70;99.90
18191;DHT22;47004;51.366;12.348;2022-09-29T10:01:48;10.80;99.90
18191;DHT22;47004;51.366;12.348;2022-09-29T10:03:54;10.90;99.90
18191;DHT22;47004;51.366;12.348;2022-09-29T10:05:57;11.00;99.90
18191;DHT22;47004;51.366;12.348;2022-09-29T10:08:00;11.10;99.90
18191;DHT22;47004;51.366;12.348;2022-09-29T10:10:06;11.20;99.90
18191;DHT22;47004;51.366;12.348;2022-09-29T10:12:15;11.20;99.90
18191;DHT22;47004;51.366;12.348;2022-09-29T10:14:22;11.30;99.90
18191;DHT22;47004;51.366;12.348;2022-09-29T10:16:30;11.30;99.90
18191;DHT22;47004;51.366;12.348;2022-09-29T10:18:38;11.40;99.90
18191;DHT22;47004;51.366;12.348;2022-09-29T10:20:40;11.40;99.90
18191;DHT22;47004;51.366;12.348;2022-09-29T10:22:42;11.50;99.90
18191;DHT22;47004;51.366;12.348;2022-09-29T10:24:45;11.60;99.90
18191;DHT22;47004;51.366;12.348;2022-09-29T10:26:49;11.60;99.90
18191;DHT22;47004;51.366;12.348;2022-09-29T10:28:53;11.60;99.90
18191;DHT22;47004;51.366;12.348;2022-09-29T10:30:57;11.60;99.90
18191;DHT22;47004;51.366;12.348;2022-09-29T10:33:02;11.60;99.90
18191;DHT22;47004;51.366;12.348;2022-09-29T10:35:14;11.60;99.90
18191;DHT22;47004;51.366;12.348;2022-09-29T10:37:20;11.60;99.90
18191;DHT22;47004;51.366;12.348;2022-09-29T10:39:40;11.60;99.90
18191;DHT22;47004;51.366;12.348;2022-09-29T10:41:49;11.60;99.90
18191;DHT22;47004;51.366;12.348;2022-09-29T10:43:53;11.70;99.90
18191;DHT22;47004;51.366;12.348;2022-09-29T10:46:00;11.70;99.90
18191;DHT22;47004;51.366;12.348;2022-09-29T10:48:11;11.80;99.90
18191;DHT22;47004;51.366;12.348;2022-09-29T10:50:17;11.90;99.90
18191;DHT22;47004;51.366;12.348;2022-09-29T10:52:23;12.00;99.90
18191;DHT22;47004;51.366;12.348;2022-09-29T10:54:27;12.00;99.90
18191;DHT22;47004;51.366;12.348;2022-09-29T10:56:29;12.10;99.90
18191;DHT22;47004;51.366;12.348;2022-09-29T10:58:36;12.10;99.90
18191;DHT22;47004;51.366;12.348;2022-09-29T11:00:40;12.20;99.90
18191;DHT22;47004;51.366;12.348;2022-09-29T11:02:46;12.30;99.90
18191;DHT22;47004;51.366;12.348;2022-09-29T11:04:49;12.30;99.90
18191;DHT22;47004;51.366;12.348;2022-09-29T11:06:52;12.30;99.90
18191;DHT22;47004;51.366;12.348;2022-09-29T11:08:59;12.30;99.90
18191;DHT22;47004;51.366;12.348;2022-09-29T11:11:06;12.30;99.90
18191;DHT22;47004;51.366;12.348;2022-09-29T11:13:34;12.40;99.90
18191;DHT22;47004;51.366;12.348;2022-09-29T11:15:39;12.40;99.90
18191;DHT22;47004;51.366;12.348;2022-09-29T11:17:50;12.50;99.90
18191;DHT22;47004;51.366;12.348;2022-09-29T11:19:53;12.60;99.90
18191;DHT22;47004;51.366;12.348;2022-09-29T11:22:31;12.70;99.90
18191;DHT22;47004;51.366;12.348;2022-09-29T11:25:06;12.80;99.90
18191;DHT22;47004;51.366;12.348;2022-09-29T11:27:19;13.10;99.90
18191;DHT22;47004;51.366;12.348;2022-09-29T11:29:36;13.30;99.90
18191;DHT22;47004;51.366;12.348;2022-09-29T11:31:52;13.50;99.90
18191;DHT22;47004;51.366;12.348;2022-09-29T11:34:04;13.80;99.90
18191;DHT22;47004;51.366;12.348;2022-09-29T11:36:18;14.10;99.90
18191;DHT22;47004;51.366;12.348;2022-09-29T11:38:46;14.30;99.90
18191;DHT22;47004;51.366;12.348;2022-09-29T11:41:02;14.50;99.90
18191;DHT22;47004;51.366;12.348;2022-09-29T11:43:15;14.80;99.90
18191;DHT22;47004;51.366;12.348;2022-09-29T11:45:32;15.00;99.90
18191;DHT22;47004;51.366;12.348;2022-09-29T11:48:00;15.20;99.90
18191;DHT22;47004;51.366;12.348;2022-09-29T11:50:31;15.40;99.90
18191;DHT22;47004;51.366;12.348;2022-09-29T11:52:51;15.60;99.90
18191;DHT22;47004;51.366;12.348;2022-09-29T11:55:06;15.70;99.90
18191;DHT22;47004;51.366;12.348;2022-09-29T11:57:24;15.90;99.90
18191;DHT22;47004;51.366;12.348;2022-09-29T11:59:44;16.10;99.90
18191;DHT22;47004;51.366;12.348;2022-09-29T12:01:56;16.30;99.90
18191;DHT22;47004;51.366;12.348;2022-09-29T12:04:18;16.60;99.90
18191;DHT22;47004;51.366;12.348;2022-09-29T12:06:41;16.80;99.90
18191;DHT22;47004;51.366;12.348;2022-09-29T12:09:01;17.10;99.90
18191;DHT22;47004;51.366;12.348;2022-09-29T12:11:10;17.20;99.90
18191;DHT22;47004;51.366;12.348;2022-09-29T12:13:19;17.30;99.90
18191;DHT22;47004;51.366;12.348;2022-09-29T12:15:29;17.50;99.90
18191;DHT22;47004;51.366;12.348;2022-09-29T12:17:38;17.60;99.90
18191;DHT22;47004;51.366;12.348;2022-09-29T12:19:42;17.70;98.10
18191;DHT22;47004;51.366;12.348;2022-09-29T12:21:50;17.80;99.90
18191;DHT22;47004;51.366;12.348;2022-09-29T12:23:52;17.90;99.90
18191;DHT22;47004;51.366;12.348;2022-09-29T12:25:58;18.00;94.30
18191;DHT22;47004;51.366;12.348;2022-09-29T12:28:05;18.10;99.90
18191;DHT22;47004;51.366;12.348;2022-09-29T12:30:16;18.20;99.90
18191;DHT22;47004;51.366;12.348;2022-09-29T12:32:22;18.40;99.90
18191;DHT22;47004;51.366;12.348;2022-09-29T12:34:33;18.60;88.60
18191;DHT22;47004;51.366;12.348;2022-09-29T12:36:43;18.60;92.20
18191;DHT22;47004;51.366;12.348;2022-09-29T12:38:51;18.80;95.50
18191;DHT22;47004;51.366;12.348;2022-09-29T12:41:05;18.90;88.90
18191;DHT22;47004;51.366;12.348;2022-09-29T12:43:12;19.00;73.70
18191;DHT22;47004;51.366;12.348;2022-09-29T12:45:22;19.10;92.80
18191;DHT22;47004;51.366;12.348;2022-09-29T12:47:38;19.30;72.00
18191;DHT22;47004;51.366;12.348;2022-09-29T12:49:54;19.40;91.50
18191;DHT22;47004;51.366;12.348;2022-09-29T12:51:58;19.60;81.60
18191;DHT22;47004;51.366;12.348;2022-09-29T12:54:11;19.70;82.20
18191;DHT22;47004;51.366;12.348;2022-09-29T12:56:19;19.90;72.70
18191;DHT22;47004;51.366;12.348;2022-09-29T12:58:30;20.00;66.70
18191;DHT22;47004;51.366;12.348;2022-09-29T13:00:35;20.20;69.00
18191;DHT22;47004;51.366;12.348;2022-09-29T13:02:53;20.40;58.00
18191;DHT22;47004;51.366;12.348;2022-09-29T13:05:17;20.50;60.30
18191;DHT22;47004;51.366;12.348;2022-09-29T13:07:48;20.70;59.30
18191;DHT22;47004;51.366;12.348;2022-09-29T13:15:26;20.90;55.00
18191;DHT22;47004;51.366;12.348;2022-09-29T13:17:45;21.00;53.90
18191;DHT22;47004;51.366;12.348;2022-09-29T13:20:13;21.20;53.30
18191;DHT22;47004;51.366;12.348;2022-09-29T13:22:32;21.30;53.90
18191;DHT22;47004;51.366;12.348;2022-09-29T13:24:44;21.40;53.50
18191;DHT22;47004;51.366;12.348;2022-09-29T13:27:08;21.50;53.50